Time;durP1;ratioP1;P1;durP2;ratioP2;P2;SDS_P1;SDS_P2;PMS_P1;PMS_P2;Temp;Humidity;BMP_temperature;BMP_pressure;BME280_temperature;BME280_humidity;BME280_pressure;Samples;Min_cycle;Max_cycle;Signal;HPM_P1;HPM_P2
2023/12/05 00:00:17;;;;;;;8.20;6.37;;;;;;;0.36;97.31;94748.34;4980504;28;20207;-84
2023/12/05 00:02:43;;;;;;;8.50;6.63;;;;;;;0.41;96.72;94750.44;4991979;28;20417;-85
2023/12/05 00:05:13;;;;;;;8.13;6.83;;;;;;;0.38;96.80;94735.53;4989151;28;20279;-85
2023/12/05 00:07:43;;;;;;;8.37;6.50;;;;;;;0.33;98.89;94773.91;4977794;28;20216;-86
2023/12/05 00:10:13;;;;;;;8.53;6.90;;;;;;;0.37;98.53;94764.31;4994126;28;20282;-86
2023/12/05 00:12:42;;;;;;;8.03;6.70;;;;;;;0.43;98.51;94761.22;4994044;28;20258;-85
2023/12/05 00:15:13;;;;;;;9.17;6.63;;;;;;;0.48;98.42;94762.44;4994307;28;20290;-85
2023/12/05 00:17:42;;;;;;;9.67;7.30;;;;;;;0.50;97.41;94760.56;4992705;28;20652;-85
2023/12/05 00:20:10;;;;;;;10.57;7.33;;;;;;;0.45;97.45;94772.81;4994399;28;20241;-85
2023/12/05 00:22:39;;;;;;;8.83;7.20;;;;;;;0.37;99.18;94798.03;4993304;28;20207;-85
2023/12/05 00:25:24;;;;;;;8.90;7.10;;;;;;;0.28;100.00;94831.72;4993344;28;20238;-86
2023/12/05 00:27:54;;;;;;;8.20;7.00;;;;;;;0.33;99.90;94829.59;4993039;28;20230;-84
2023/12/05 00:30:24;;;;;;;9.77;7.90;;;;;;;0.35;99.21;94822.69;4993485;28;20290;-86
2023/12/05 00:32:54;;;;;;;9.00;8.10;;;;;;;0.32;100.00;94830.53;4992450;28;20217;-84
2023/12/05 00:35:20;;;;;;;14.07;9.60;;;;;;;0.29;99.79;94821.47;4989975;28;20195;-85
2023/12/05 00:37:47;;;;;;;13.30;9.80;;;;;;;0.25;100.00;94826.94;4993287;28;20230;-85
2023/12/05 00:40:16;;;;;;;12.53;9.93;;;;;;;0.28;100.00;94831.72;4992954;28;20258;-83
2023/12/05 00:42:42;;;;;;;15.40;10.63;;;;;;;0.26;100.00;94831.84;4992699;28;20298;-84
2023/12/05 00:45:13;;;;;;;13.87;10.50;;;;;;;0.31;100.00;94826.41;4992407;28;20220;-83
2023/12/05 00:47:44;;;;;;;14.13;11.03;;;;;;;0.37;99.98;94825.09;4977566;28;20238;-85
2023/12/05 00:50:15;;;;;;;14.47;10.67;;;;;;;0.40;99.45;94825.59;4986367;28;20234;-85
2023/12/05 00:52:41;;;;;;;15.13;10.77;;;;;;;0.47;98.75;94830.94;4996737;28;20215;-84
2023/12/05 00:55:11;;;;;;;13.90;10.57;;;;;;;0.52;98.41;94829.59;4997162;28;20558;-85
2023/12/05 00:57:38;;;;;;;14.53;10.87;;;;;;;0.52;98.56;94834.66;4996993;28;20219;-85
2023/12/05 01:00:09;;;;;;;14.67;10.83;;;;;;;0.53;98.20;94838.00;4997295;28;20286;-85
2023/12/05 01:02:38;;;;;;;14.37;11.53;;;;;;;0.58;97.50;94823.97;4996369;28;20199;-82
2023/12/05 01:05:09;;;;;;;16.20;11.80;;;;;;;0.54;98.34;94847.19;4993591;28;20224;-85
2023/12/05 01:07:41;;;;;;;15.00;12.03;;;;;;;0.55;97.59;94842.00;4996000;28;20219;-85
2023/12/05 01:10:09;;;;;;;17.63;12.40;;;;;;;0.59;97.59;94833.19;4996703;28;20210;-85
2023/12/05 01:12:38;;;;;;;16.37;12.00;;;;;;;0.61;98.19;94846.50;4996454;28;20674;-85
2023/12/05 01:15:09;;;;;;;14.97;12.57;;;;;;;0.64;98.04;94841.19;4996736;28;20195;-84
2023/12/05 01:17:38;;;;;;;14.43;11.73;;;;;;;0.68;97.86;94836.66;4996220;28;20715;-85
2023/12/05 01:20:14;;;;;;;15.50;12.33;;;;;;;0.66;97.99;94844.38;4996635;28;20210;-86
2023/12/05 01:22:41;;;;;;;15.70;11.97;;;;;;;0.66;98.11;94841.06;4994869;28;20211;-84
2023/12/05 01:25:08;;;;;;;15.17;12.50;;;;;;;0.60;98.80;94852.50;4995930;28;20224;-83
2023/12/05 01:27:35;;;;;;;17.33;13.17;;;;;;;0.56;98.93;94843.59;4995472;28;20258;-85
2023/12/05 01:30:02;;;;;;;17.77;13.00;;;;;;;0.44;99.59;94857.31;4981447;28;20196;-82
2023/12/05 01:32:31;;;;;;;16.13;12.53;;;;;;;0.34;100.00;94882.63;4989395;28;20750;-84
2023/12/05 01:35:00;;;;;;;17.03;12.60;;;;;;;0.33;100.00;94908.88;4981537;28;20219;-82
2023/12/05 01:37:32;;;;;;;17.67;12.73;;;;;;;0.34;100.00;94924.88;4978042;28;20223;-83
2023/12/05 01:39:58;;;;;;;16.13;12.77;;;;;;;0.36;100.00;94930.59;4997512;28;20299;-83
2023/12/05 01:42:25;;;;;;;16.83;12.57;;;;;;;0.43;100.00;94930.88;4997701;28;20214;-82
2023/12/05 01:44:57;;;;;;;17.17;12.70;;;;;;;0.47;100.00;94934.75;4996913;28;20258;-83
2023/12/05 01:47:27;;;;;;;17.57;12.30;;;;;;;0.45;100.00;94942.47;4978328;28;20315;-83
2023/12/05 01:49:56;;;;;;;17.93;11.67;;;;;;;0.47;100.00;94957.53;4977612;28;20196;-83
2023/12/05 01:52:23;;;;;;;16.13;12.30;;;;;;;0.50;100.00;94954.75;4977306;28;20197;-82
2023/12/05 01:54:52;;;;;;;15.37;11.40;;;;;;;0.50;100.00;94962.34;4987153;28;20210;-82
2023/12/05 01:57:24;;;;;;;15.20;12.07;;;;;;;0.55;100.00;94981.28;4991069;28;20238;-82
2023/12/05 01:59:53;;;;;;;12.87;10.20;;;;;;;0.62;100.00;94979.03;4997180;28;20199;-83
2023/12/05 02:02:22;;;;;;;16.07;11.23;;;;;;;0.65;100.00;94977.03;4997502;28;20203;-83
2023/12/05 02:04:48;;;;;;;12.83;9.67;;;;;;;0.66;100.00;94988.75;4997514;28;20235;-82
2023/12/05 02:07:20;;;;;;;11.17;9.23;;;;;;;0.72;100.00;94996.78;4978313;28;20227;-82
2023/12/05 02:09:52;;;;;;;12.57;9.33;;;;;;;0.81;100.00;94995.97;4995974;28;20664;-83
2023/12/05 02:12:22;;;;;;;11.00;8.40;;;;;;;0.85;100.00;94989.72;4996797;28;20207;-83
2023/12/05 02:14:52;;;;;;;10.10;8.13;;;;;;;0.91;100.00;94982.41;4997649;28;20203;-82
2023/12/05 02:17:32;;;;;;;10.47;8.23;;;;;;;0.95;100.00;94983.75;4997260;28;20223;-83
2023/12/05 02:20:07;;;;;;;12.33;8.50;;;;;;;1.01;100.00;94988.25;4988083;28;20207;-82
2023/12/05 02:23:14;;;;;;;10.57;7.27;;;;;;;1.06;100.00;94964.25;4977299;28;20211;-82
2023/12/05 02:26:02;;;;;;;9.60;6.87;;;;;;;1.06;100.00;94972.66;4977696;28;20192;-82
2023/12/05 02:28:30;;;;;;;10.80;7.70;;;;;;;1.12;100.00;94962.00;4994645;28;20220;-86
2023/12/05 02:31:01;;;;;;;10.60;7.67;;;;;;;1.16;100.00;94962.50;4983738;28;20231;-85
2023/12/05 02:33:27;;;;;;;8.27;6.80;;;;;;;1.21;100.00;94957.84;4977688;28;20200;-83
2023/12/05 02:36:12;;;;;;;10.50;7.80;;;;;;;1.25;100.00;94933.81;4988581;28;20227;-82
2023/12/05 02:38:49;;;;;;;8.23;7.13;;;;;;;1.28;100.00;94921.69;4984838;28;20306;-84
2023/12/05 02:41:23;;;;;;;9.90;7.93;;;;;;;1.23;100.00;94954.25;4990719;28;20205;-82
2023/12/05 02:44:01;;;;;;;11.23;7.93;;;;;;;1.21;100.00;94976.38;4993795;28;20230;-81
2023/12/05 02:46:30;;;;;;;10.33;7.97;;;;;;;1.24;100.00;94983.72;4985121;28;20214;-83
2023/12/05 02:48:59;;;;;;;8.40;7.07;;;;;;;1.28;100.00;94974.94;4976331;28;20330;-84
2023/12/05 02:51:26;;;;;;;9.30;7.67;;;;;;;1.31;100.00;94969.59;4992022;28;20204;-84
2023/12/05 02:53:55;;;;;;;9.30;7.47;;;;;;;1.30;100.00;94992.53;4995267;28;20209;-85
2023/12/05 02:56:22;;;;;;;8.40;7.50;;;;;;;1.29;100.00;94983.34;4995201;28;20695;-85
2023/12/05 02:58:51;;;;;;;7.33;6.37;;;;;;;1.32;100.00;94983.88;4993690;28;20226;-85
2023/12/05 03:01:22;;;;;;;8.33;6.30;;;;;;;1.33;100.00;94975.31;4994292;28;20207;-84
2023/12/05 03:03:49;;;;;;;10.00;6.40;;;;;;;1.36;100.00;94981.84;4995174;28;20226;-84
2023/12/05 03:06:21;;;;;;;9.57;6.40;;;;;;;1.38;100.00;94979.97;4994698;28;20215;-85
2023/12/05 03:08:47;;;;;;;7.67;6.13;;;;;;;1.36;100.00;94985.19;4982790;28;20231;-85
2023/12/05 03:11:16;;;;;;;8.97;6.33;;;;;;;1.42;100.00;94993.19;4987739;28;20244;-85
2023/12/05 03:13:42;;;;;;;6.93;6.03;;;;;;;1.45;100.00;94977.69;4976497;28;20799;-85
2023/12/05 03:16:14;;;;;;;7.87;6.40;;;;;;;1.48;100.00;94982.50;4990565;28;20290;-84
2023/12/05 03:18:42;;;;;;;7.47;5.97;;;;;;;1.44;100.00;94983.72;4995145;28;20222;-85
2023/12/05 03:21:16;;;;;;;7.03;5.87;;;;;;;1.38;100.00;94990.13;4995988;28;20213;-85
2023/12/05 03:23:42;;;;;;;8.07;5.97;;;;;;;1.38;100.00;95006.13;4993166;28;20235;-84
2023/12/05 03:26:26;;;;;;;7.07;5.87;;;;;;;1.37;100.00;95011.34;4989122;28;20207;-84
2023/12/05 03:28:55;;;;;;;6.07;5.47;;;;;;;1.33;100.00;95015.09;4991786;28;20219;-85
2023/12/05 03:31:22;;;;;;;9.00;5.03;;;;;;;1.37;100.00;95022.28;4983444;28;20200;-85
2023/12/05 03:33:59;;;;;;;6.93;4.70;;;;;;;1.38;100.00;95015.47;4992221;28;20208;-84
2023/12/05 03:36:25;;;;;;;5.93;5.07;;;;;;;1.41;100.00;95019.47;4991315;28;20203;-84
2023/12/05 03:38:53;;;;;;;11.03;5.43;;;;;;;1.43;100.00;95017.63;4994711;28;20291;-84
2023/12/05 03:41:22;;;;;;;6.23;5.10;;;;;;;1.43;100.00;95018.41;4981277;28;20200;-85
2023/12/05 03:43:54;;;;;;;5.47;4.70;;;;;;;1.47;100.00;95021.50;4994485;28;20200;-84
2023/12/05 03:46:23;;;;;;;5.77;4.53;;;;;;;1.54;100.00;95015.72;4994909;28;20211;-84
2023/12/05 03:48:51;;;;;;;5.63;4.13;;;;;;;1.55;100.00;95008.91;4993627;28;20660;-82
2023/12/05 03:51:20;;;;;;;4.63;4.20;;;;;;;1.56;100.00;95001.16;4990574;28;20196;-84
2023/12/05 03:53:47;;;;;;;5.43;4.53;;;;;;;1.55;100.00;95001.31;4974414;28;20205;-84
2023/12/05 03:56:16;;;;;;;5.43;4.70;;;;;;;1.59;100.00;95013.59;4975436;28;20208;-82
2023/12/05 03:58:45;;;;;;;5.30;4.40;;;;;;;1.59;100.00;95016.13;4975753;28;20227;-86
2023/12/05 04:01:11;;;;;;;6.30;4.87;;;;;;;1.63;100.00;95011.59;4988443;28;20210;-82
2023/12/05 04:03:38;;;;;;;5.27;3.90;;;;;;;1.63;100.00;95006.50;4993065;28;20199;-85
2023/12/05 04:06:06;;;;;;;5.53;4.37;;;;;;;1.67;100.00;95012.91;4993522;28;20231;-82
2023/12/05 04:08:33;;;;;;;4.90;3.87;;;;;;;1.69;100.00;94999.16;4993605;28;20223;-83
2023/12/05 04:11:02;;;;;;;5.97;3.80;;;;;;;1.73;100.00;94999.69;4992980;28;20368;-83
2023/12/05 04:13:28;;;;;;;5.87;3.70;;;;;;;1.77;100.00;94997.66;4974462;28;20204;-82
2023/12/05 04:15:57;;;;;;;5.87;4.20;;;;;;;1.79;100.00;94983.91;4974930;28;20559;-84
2023/12/05 04:18:23;;;;;;;4.20;3.63;;;;;;;1.81;100.00;94973.63;4976083;28;20224;-83
2023/12/05 04:20:53;;;;;;;3.77;3.37;;;;;;;1.83;100.00;94975.09;4997177;28;20203;-82
2023/12/05 04:23:20;;;;;;;5.47;3.97;;;;;;;1.73;100.00;94972.56;4989050;28;20196;-83
2023/12/05 04:25:52;;;;;;;5.13;4.27;;;;;;;1.65;100.00;94987.69;4979237;28;20228;-82
2023/12/05 04:28:23;;;;;;;5.27;4.63;;;;;;;1.66;100.00;95012.13;4978263;28;20224;-83
2023/12/05 04:30:53;;;;;;;5.90;4.07;;;;;;;1.70;100.00;95005.84;4987333;28;20223;-83
2023/12/05 04:33:22;;;;;;;6.07;3.87;;;;;;;1.72;100.00;95003.97;4998007;28;20246;-85
2023/12/05 04:35:49;;;;;;;6.50;3.80;;;;;;;1.72;100.00;95010.78;4995349;28;20344;-83
2023/12/05 04:38:31;;;;;;;7.10;3.93;;;;;;;1.69;100.00;95008.50;4989297;28;20238;-83
2023/12/05 04:40:57;;;;;;;5.60;3.87;;;;;;;1.70;100.00;95025.34;4998500;28;20210;-83
2023/12/05 04:43:24;;;;;;;6.23;4.10;;;;;;;1.74;100.00;95026.66;4998076;28;20199;-83
2023/12/05 04:45:54;;;;;;;6.37;4.03;;;;;;;1.78;100.00;95011.94;4988964;28;20235;-85
2023/12/05 04:48:27;;;;;;;3.87;3.47;;;;;;;1.79;100.00;94994.06;4997498;28;20235;-84
2023/12/05 04:50:59;;;;;;;4.20;3.57;;;;;;;1.76;100.00;94998.59;4997130;28;20203;-86
2023/12/05 04:53:27;;;;;;;4.40;3.37;;;;;;;1.73;100.00;94995.41;4996198;28;20224;-84
2023/12/05 04:55:53;;;;;;;4.30;3.47;;;;;;;1.79;100.00;94985.63;4991438;28;20199;-86
2023/12/05 04:58:20;;;;;;;3.93;3.53;;;;;;;1.80;100.00;94979.63;4996487;28;20220;-83
2023/12/05 05:00:47;;;;;;;5.73;3.73;;;;;;;1.76;100.00;94988.44;4996794;28;20204;-85
2023/12/05 05:03:16;;;;;;;4.53;3.87;;;;;;;1.67;100.00;94987.56;4996352;28;20287;-85
2023/12/05 05:05:45;;;;;;;4.17;3.53;;;;;;;1.61;100.00;95004.09;4985295;28;20699;-85
2023/12/05 05:08:14;;;;;;;5.37;3.27;;;;;;;1.61;100.00;95014.25;4994300;28;20216;-86
2023/12/05 05:10:42;;;;;;;4.60;3.50;;;;;;;1.54;100.00;95005.56;4996835;28;20954;-83
2023/12/05 05:13:09;;;;;;;8.93;3.70;;;;;;;1.47;100.00;95016.41;4997524;28;20203;-85
2023/12/05 05:15:37;;;;;;;5.27;3.30;;;;;;;1.45;100.00;95023.34;4995904;28;20207;-85
2023/12/05 05:18:04;;;;;;;5.23;3.40;;;;;;;1.50;100.00;95018.69;4989690;28;20222;-84
2023/12/05 05:20:33;;;;;;;6.77;3.77;;;;;;;1.51;100.00;95021.09;4997328;28;20208;-85
2023/12/05 05:23:03;;;;;;;4.53;3.50;;;;;;;1.55;100.00;95022.41;4994945;28;20647;-86
2023/12/05 05:25:39;;;;;;;4.50;3.13;;;;;;;1.50;100.00;95019.50;4992960;28;20318;-85
2023/12/05 05:28:10;;;;;;;4.80;3.30;;;;;;;1.44;100.00;95009.88;4994249;28;20302;-85
2023/12/05 05:30:40;;;;;;;4.67;3.20;;;;;;;1.39;100.00;95032.28;4990575;28;20722;-82
2023/12/05 05:33:07;;;;;;;4.53;2.93;;;;;;;1.46;100.00;95024.97;4994694;28;20196;-85
2023/12/05 05:35:34;;;;;;;3.80;3.33;;;;;;;1.42;100.00;95016.81;4994575;28;20200;-86
2023/12/05 05:38:00;;;;;;;3.97;3.27;;;;;;;1.37;100.00;95029.09;4992514;28;20230;-85
2023/12/05 05:40:27;;;;;;;5.17;3.00;;;;;;;1.35;100.00;95018.28;4994752;28;20758;-85
2023/12/05 05:43:03;;;;;;;4.00;2.70;;;;;;;1.41;100.00;95019.47;4992976;28;20197;-85
2023/12/05 05:45:31;;;;;;;3.90;2.97;;;;;;;1.50;100.00;95013.63;4978833;28;20251;-84
2023/12/05 05:47:58;;;;;;;4.40;3.10;;;;;;;1.43;100.00;95000.66;4983623;28;20227;-85
2023/12/05 05:50:30;;;;;;;6.40;3.07;;;;;;;1.44;100.00;94996.38;4988582;28;20271;-85
2023/12/05 05:53:05;;;;;;;5.13;2.73;;;;;;;1.50;100.00;94990.78;4985926;28;20683;-86
2023/12/05 05:55:35;;;;;;;4.87;2.97;;;;;;;1.52;100.00;94976.22;4992007;28;20210;-83
2023/12/05 05:58:12;;;;;;;5.83;3.10;;;;;;;1.52;100.00;94968.63;4993332;28;20899;-82
2023/12/05 06:00:45;;;;;;;4.27;3.07;;;;;;;1.47;100.00;94968.22;4994789;28;20203;-86
2023/12/05 06:03:13;;;;;;;3.50;3.20;;;;;;;1.48;100.00;94970.63;4991230;28;20199;-83
2023/12/05 06:05:46;;;;;;;7.30;3.10;;;;;;;1.46;100.00;94979.31;4991666;28;20230;-85
2023/12/05 06:08:15;;;;;;;6.50;3.40;;;;;;;1.48;100.00;94979.97;4993474;28;20237;-86
2023/12/05 06:10:42;;;;;;;5.13;3.17;;;;;;;1.50;100.00;94973.84;4994887;28;20298;-85
2023/12/05 06:13:21;;;;;;;4.27;2.90;;;;;;;1.48;100.00;94974.91;4992479;28;20196;-84
2023/12/05 06:15:53;;;;;;;4.10;2.80;;;;;;;1.47;100.00;94984.25;4994826;28;20225;-84
2023/12/05 06:18:23;;;;;;;6.83;3.00;;;;;;;1.42;100.00;94983.84;4992786;28;20216;-85
2023/12/05 06:20:51;;;;;;;3.03;2.70;;;;;;;1.40;100.00;94983.19;4992005;28;20199;-85
2023/12/05 06:23:18;;;;;;;4.37;3.03;;;;;;;1.31;100.00;94981.47;4991656;28;20203;-85
2023/12/05 06:25:45;;;;;;;5.17;2.83;;;;;;;1.34;100.00;95012.44;4991464;28;20227;-85
2023/12/05 06:28:12;;;;;;;3.00;2.70;;;;;;;1.41;100.00;94994.13;4992252;28;20606;-85
2023/12/05 06:30:38;;;;;;;12.80;8.00;;;;;;;1.45;100.00;94992.91;4994351;28;20207;-84
2023/12/05 06:33:06;;;;;;;4.00;3.23;;;;;;;1.43;100.00;94987.97;4995839;28;20199;-85
2023/12/05 06:36:07;;;;;;;8.07;3.10;;;;;;;1.43;100.00;94980.38;4993036;28;20204;-86
2023/12/05 06:38:33;;;;;;;6.00;3.67;;;;;;;1.74;100.00;95075.66;4957641;28;20819;-86
2023/12/05 06:41:07;;;;;;;3.90;3.33;;;;;;;1.78;100.00;95033.06;4977636;28;20671;-86
2023/12/05 06:43:34;;;;;;;7.33;3.50;;;;;;;1.74;100.00;94993.66;4976555;28;20737;-84
2023/12/05 06:46:00;;;;;;;4.50;3.63;;;;;;;1.77;100.00;94978.16;4991287;28;20219;-86
2023/12/05 06:48:29;;;;;;;4.33;2.93;;;;;;;1.80;100.00;94961.88;4992067;28;20224;-84
2023/12/05 06:50:59;;;;;;;5.87;3.00;;;;;;;1.76;100.00;94940.22;4996184;28;20574;-86
2023/12/05 06:53:28;;;;;;;4.80;3.00;;;;;;;1.78;100.00;94939.16;4991380;28;20192;-85
2023/12/05 06:55:57;;;;;;;4.60;2.93;;;;;;;1.75;100.00;94939.44;4991202;28;20294;-86
2023/12/05 06:58:26;;;;;;;5.03;2.80;;;;;;;1.76;100.00;94940.22;4995266;28;20215;-84
2023/12/05 07:01:02;;;;;;;4.20;3.13;;;;;;;1.76;100.00;94930.09;4993492;28;20288;-87
2023/12/05 07:03:33;;;;;;;3.70;2.70;;;;;;;1.71;100.00;94931.31;4996606;28;20601;-83
2023/12/05 07:06:00;;;;;;;3.97;2.80;;;;;;;1.77;100.00;94934.22;4995725;28;20237;-84
2023/12/05 07:08:26;;;;;;;9.47;3.13;;;;;;;1.77;100.00;94942.63;4997013;28;20331;-85
2023/12/05 07:10:53;;;;;;;7.77;3.30;;;;;;;1.82;100.00;94939.69;4998119;28;20199;-84
2023/12/05 07:13:36;;;;;;;4.83;3.37;;;;;;;1.77;100.00;94939.28;4997670;28;20286;-85
2023/12/05 07:16:03;;;;;;;9.73;3.20;;;;;;;1.81;100.00;94948.25;4984562;28;20202;-84
2023/12/05 07:18:35;;;;;;;5.33;3.07;;;;;;;1.79;100.00;94950.13;4994350;28;20227;-84
2023/12/05 07:21:11;;;;;;;8.47;3.30;;;;;;;1.82;100.00;94962.53;4992371;28;20288;-84
2023/12/05 07:23:38;;;;;;;5.47;2.93;;;;;;;1.89;100.00;94956.78;4977114;28;20226;-83
2023/12/05 07:26:05;;;;;;;3.50;2.70;;;;;;;1.96;100.00;94959.53;4976766;28;20226;-84
2023/12/05 07:28:31;;;;;;;3.30;2.67;;;;;;;2.02;100.00;94961.53;4976657;28;20223;-84
2023/12/05 07:30:58;;;;;;;3.57;2.57;;;;;;;2.07;100.00;94957.63;4995794;28;20656;-85
2023/12/05 07:33:27;;;;;;;5.53;3.27;;;;;;;2.10;100.00;94963.38;4986593;28;20201;-83
2023/12/05 07:35:55;;;;;;;10.40;6.00;;;;;;;2.06;100.00;94986.50;4995446;28;20650;-84
2023/12/05 07:38:21;;;;;;;6.80;5.53;;;;;;;2.06;100.00;94998.41;4995435;28;20727;-84
2023/12/05 07:40:47;;;;;;;8.43;4.87;;;;;;;2.01;100.00;95018.31;4995457;28;20204;-85
2023/12/05 07:43:14;;;;;;;7.90;3.80;;;;;;;2.01;100.00;95026.72;4983462;28;20196;-86
2023/12/05 07:45:40;;;;;;;7.17;3.93;;;;;;;2.11;100.00;95033.53;4974895;28;20227;-86
2023/12/05 07:48:07;;;;;;;5.00;3.93;;;;;;;2.15;100.00;95038.16;4974736;28;20263;-86
2023/12/05 07:50:38;;;;;;;11.33;5.47;;;;;;;2.19;100.00;95038.69;4992130;28;20610;-84
2023/12/05 07:53:06;;;;;;;6.40;3.47;;;;;;;2.10;100.00;95039.53;4994199;28;20837;-86
2023/12/05 07:55:37;;;;;;;6.30;3.40;;;;;;;2.11;100.00;95043.69;4992521;28;20203;-84
2023/12/05 07:58:03;;;;;;;10.23;3.73;;;;;;;2.13;100.00;95036.72;4990574;28;20234;-84
2023/12/05 08:00:30;;;;;;;7.90;3.83;;;;;;;2.12;100.00;95045.28;4991561;28;20192;-84
2023/12/05 08:02:57;;;;;;;9.60;3.63;;;;;;;2.18;100.00;95047.25;4982751;28;20206;-83
2023/12/05 08:05:24;;;;;;;7.77;4.07;;;;;;;2.16;100.00;95049.13;4986863;28;20223;-86
2023/12/05 08:07:55;;;;;;;5.87;3.70;;;;;;;2.24;100.00;95060.22;4991052;28;20736;-85
2023/12/05 08:10:32;;;;;;;6.33;3.57;;;;;;;2.30;100.00;95044.44;4993354;28;20209;-86
2023/12/05 08:13:16;;;;;;;5.73;3.30;;;;;;;2.35;100.00;95033.81;4993283;28;20206;-86
2023/12/05 08:15:49;;;;;;;5.07;3.13;;;;;;;2.43;100.00;95023.78;4983972;28;20201;-86
2023/12/05 08:18:15;;;;;;;4.23;3.43;;;;;;;2.51;100.00;95015.44;4973609;28;20226;-87
2023/12/05 08:21:09;;;;;;;9.13;3.63;;;;;;;2.59;100.00;95016.34;4990982;28;20207;-86
2023/12/05 08:23:38;;;;;;;3.43;2.83;;;;;;;2.69;100.00;95012.00;4988340;28;20215;-86
2023/12/05 08:26:13;;;;;;;5.37;3.43;;;;;;;2.74;100.00;94993.78;4985424;28;20715;-86
2023/12/05 08:28:42;;;;;;;6.77;3.60;;;;;;;2.79;100.00;94986.53;4990017;28;20649;-85
2023/12/05 08:31:11;;;;;;;4.70;3.50;;;;;;;2.92;100.00;94983.63;5002127;28;20203;-86
2023/12/05 08:33:38;;;;;;;5.50;3.43;;;;;;;3.02;100.00;94974.22;4991625;28;20207;-86
2023/12/05 08:36:08;;;;;;;6.40;3.47;;;;;;;3.11;100.00;94973.31;4978710;28;20255;-86
2023/12/05 08:38:37;;;;;;;4.67;3.50;;;;;;;3.14;100.00;94957.78;4985682;28;20603;-87
2023/12/05 08:41:16;;;;;;;5.60;3.80;;;;;;;3.16;100.00;94955.09;4990893;28;20303;-85
2023/12/05 08:43:43;;;;;;;7.80;4.07;;;;;;;3.16;99.83;94952.53;4986038;28;20287;-85
2023/12/05 08:46:09;;;;;;;9.10;3.83;;;;;;;3.17;99.77;94949.84;4980207;28;20226;-87
2023/12/05 08:48:36;;;;;;;10.10;3.80;;;;;;;3.19;99.60;94939.53;4971553;28;20240;-85
2023/12/05 08:51:02;;;;;;;5.20;3.40;;;;;;;3.21;99.86;94950.38;4973588;28;20204;-86
2023/12/05 08:53:29;;;;;;;10.07;4.07;;;;;;;3.20;100.00;94962.28;4975055;28;20203;-86
2023/12/05 08:55:56;;;;;;;5.33;3.20;;;;;;;3.19;100.00;94963.22;4989739;28;20203;-83
2023/12/05 08:58:24;;;;;;;4.77;3.50;;;;;;;3.18;100.00;94968.47;4992877;28;20299;-87
2023/12/05 09:00:51;;;;;;;4.17;3.20;;;;;;;3.23;100.00;94971.38;4990785;28;20206;-86
2023/12/05 09:03:19;;;;;;;8.53;3.53;;;;;;;3.30;100.00;94973.16;4993232;28;20208;-84
2023/12/05 09:05:45;;;;;;;7.87;3.50;;;;;;;3.36;99.82;94962.41;4993758;28;20219;-86
2023/12/05 09:08:14;;;;;;;6.83;3.97;;;;;;;3.40;99.24;94950.19;4988181;28;20216;-84
2023/12/05 09:10:41;;;;;;;7.63;3.87;;;;;;;3.46;99.32;94944.53;4975205;28;20291;-83
2023/12/05 09:13:08;;;;;;;13.63;3.57;;;;;;;3.55;98.85;94947.91;4977960;28;20652;-84
2023/12/05 09:15:35;;;;;;;5.73;3.23;;;;;;;3.57;98.76;94951.91;4999015;28;20192;-84
2023/12/05 09:18:02;;;;;;;4.33;3.20;;;;;;;3.69;98.33;94955.78;4982784;28;20227;-84
2023/12/05 09:20:28;;;;;;;7.03;3.50;;;;;;;3.71;98.60;94958.19;4994497;28;20196;-83
2023/12/05 09:22:55;;;;;;;7.23;3.40;;;;;;;3.70;98.92;94956.59;4995920;28;20206;-84
2023/12/05 09:25:21;;;;;;;6.40;2.80;;;;;;;3.64;100.00;94967.38;4980854;28;20267;-83
2023/12/05 09:27:48;;;;;;;6.77;3.47;;;;;;;3.67;100.00;94970.41;4995609;28;20635;-83
2023/12/05 09:30:15;;;;;;;10.57;4.47;;;;;;;3.70;100.00;94982.03;4992895;28;20204;-84
2023/12/05 09:32:42;;;;;;;7.80;5.43;;;;;;;3.74;100.00;94973.16;4995089;28;20584;-84
2023/12/05 09:35:09;;;;;;;6.60;5.27;;;;;;;3.78;100.00;94977.81;4992406;28;20718;-83
2023/12/05 09:37:36;;;;;;;8.07;4.33;;;;;;;3.87;100.00;94980.38;4975405;28;20220;-83
2023/12/05 09:40:07;;;;;;;4.30;3.70;;;;;;;3.90;99.88;94960.53;4986514;28;20578;-83
2023/12/05 09:42:43;;;;;;;6.57;3.37;;;;;;;3.94;99.85;94961.81;4995973;28;20203;-86
2023/12/05 09:45:14;;;;;;;5.97;2.93;;;;;;;4.00;99.68;94958.69;4991961;28;20192;-86
2023/12/05 09:47:42;;;;;;;3.93;2.70;;;;;;;4.03;99.70;94965.22;4984365;28;20234;-83
2023/12/05 09:50:10;;;;;;;9.37;2.60;;;;;;;4.15;99.67;94974.19;4995181;28;20200;-83
2023/12/05 09:52:37;;;;;;;2.87;2.30;;;;;;;4.33;98.87;94964.72;4989027;28;20199;-84
2023/12/05 09:55:04;;;;;;;2.17;1.97;;;;;;;4.39;98.43;94948.81;4991270;28;20298;-83
2023/12/05 09:57:31;;;;;;;3.67;2.10;;;;;;;4.79;98.18;94960.88;4987449;28;20211;-84
2023/12/05 09:59:58;;;;;;;5.57;2.77;;;;;;;5.14;95.88;94919.00;4991716;28;20202;-84
2023/12/05 10:02:25;;;;;;;5.43;3.10;;;;;;;5.41;94.20;94892.31;4992082;28;20363;-87
2023/12/05 10:05:01;;;;;;;4.03;2.50;;;;;;;5.51;91.75;94852.09;4992973;28;20275;-87
2023/12/05 10:07:27;;;;;;;3.03;2.37;;;;;;;5.62;92.26;94852.72;4991748;28;20223;-86
2023/12/05 10:09:55;;;;;;;2.87;2.47;;;;;;;5.75;91.88;94846.13;5016832;28;20226;-83
2023/12/05 10:12:24;;;;;;;5.23;2.50;;;;;;;5.93;90.33;94820.41;4994448;28;20645;-84
2023/12/05 10:14:56;;;;;;;3.23;2.00;;;;;;;5.95;88.46;94771.69;4986870;28;20288;-84
2023/12/05 10:17:34;;;;;;;3.77;2.23;;;;;;;5.84;87.62;94749.84;4977129;28;20299;-83
2023/12/05 10:20:02;;;;;;;3.33;2.53;;;;;;;5.66;87.89;94754.38;4988811;28;20253;-87
2023/12/05 10:22:49;;;;;;;3.47;2.27;;;;;;;5.52;88.89;94778.88;4992489;28;20212;-87
2023/12/05 10:25:28;;;;;;;4.00;2.30;;;;;;;5.38;89.66;94782.13;4975529;28;20196;-87
2023/12/05 10:28:03;;;;;;;4.03;2.23;;;;;;;5.31;90.55;94799.03;4975342;28;20220;-86
2023/12/05 10:30:40;;;;;;;2.83;2.17;;;;;;;5.34;91.03;94809.72;4972277;28;20208;-86
2023/12/05 10:33:26;;;;;;;3.00;2.40;;;;;;;5.33;91.79;94825.97;4977752;28;20278;-86
2023/12/05 10:36:17;;;;;;;3.13;2.47;;;;;;;5.29;92.09;94834.91;4989498;28;20294;-86
2023/12/05 10:38:47;;;;;;;3.20;2.43;;;;;;;5.21;92.88;94845.13;4989886;28;20235;-86
2023/12/05 10:41:30;;;;;;;4.07;2.50;;;;;;;5.05;93.09;94843.41;4982129;28;20196;-85
2023/12/05 10:44:04;;;;;;;4.37;2.50;;;;;;;5.18;93.90;94860.78;4982522;28;20272;-86
2023/12/05 10:46:36;;;;;;;4.57;3.30;;;;;;;5.38;94.08;94874.78;4996109;28;20276;-87
2023/12/05 10:49:08;;;;;;;4.57;3.43;;;;;;;5.58;93.12;94852.22;4994834;28;20223;-85
2023/12/05 10:51:36;;;;;;;3.60;3.27;;;;;;;5.77;92.06;94844.19;4991642;28;20207;-86
2023/12/05 10:54:03;;;;;;;2.53;2.30;;;;;;;5.95;90.59;94810.00;4989360;28;20206;-86
2023/12/05 10:56:35;;;;;;;2.80;2.20;;;;;;;6.04;89.89;94794.47;4998246;28;20188;-86
2023/12/05 10:59:05;;;;;;;2.43;2.00;;;;;;;5.79;89.58;94783.53;4992666;28;20766;-87
2023/12/05 11:01:55;;;;;;;2.87;2.20;;;;;;;5.68;90.82;94806.09;4997002;28;20203;-84
2023/12/05 11:04:22;;;;;;;3.60;2.10;;;;;;;5.63;91.51;94833.88;4990522;28;20198;-85
2023/12/05 11:06:57;;;;;;;2.00;1.80;;;;;;;5.81;91.67;94829.34;4978287;28;20247;-84
2023/12/05 11:09:24;;;;;;;2.63;2.00;;;;;;;5.85;92.04;94835.72;4991209;28;20221;-83
2023/12/05 11:11:57;;;;;;;3.77;1.80;;;;;;;5.78;90.98;94811.78;4996977;28;20211;-83
2023/12/05 11:14:27;;;;;;;1.83;1.73;;;;;;;5.75;90.69;94812.94;4998620;28;20231;-83
2023/12/05 11:16:56;;;;;;;3.30;2.20;;;;;;;5.97;90.76;94810.63;4997342;28;20222;-84
2023/12/05 11:19:45;;;;;;;3.37;2.00;;;;;;;6.33;90.63;94814.28;4996545;28;20223;-83
2023/12/05 11:22:35;;;;;;;2.90;1.80;;;;;;;6.49;88.72;94783.47;4979824;28;20304;-83
2023/12/05 11:25:22;;;;;;;2.67;2.07;;;;;;;6.48;88.16;94758.09;4992470;28;20203;-82
2023/12/05 11:28:02;;;;;;;3.10;2.50;;;;;;;6.35;87.71;94747.66;4991444;28;20586;-86
2023/12/05 11:31:11;;;;;;;2.93;2.07;;;;;;;6.21;89.02;94779.81;4996036;28;20199;-86
2023/12/05 11:34:08;;;;;;;2.40;1.90;;;;;;;6.10;90.02;94798.91;4987726;28;20204;-84
2023/12/05 11:37:01;;;;;;;3.47;1.90;;;;;;;5.94;90.17;94810.97;4984769;28;20272;-86
2023/12/05 11:39:30;;;;;;;1.90;1.70;;;;;;;5.85;90.91;94825.50;4978582;28;20211;-87
2023/12/05 11:42:10;;;;;;;1.93;1.40;;;;;;;5.71;91.93;94838.97;4995774;28;20208;-86
2023/12/05 11:44:39;;;;;;;2.97;1.70;;;;;;;5.64;92.08;94838.03;4997015;28;20582;-85
2023/12/05 11:47:13;;;;;;;1.70;1.60;;;;;;;5.60;93.10;94855.41;4991745;28;20382;-86
2023/12/05 11:49:48;;;;;;;3.27;1.50;;;;;;;5.61;93.64;94876.63;4985647;28;20226;-86